»·PEaware :: N3891R KOXR-KONT

N3891R :: KOXR-KONT

FLIGHT INFORMATION

Flight Status: Arrived
Operator: Privately registered:
United States
More flights under this callsign
Pilot: Markus B. (22479)
Aircraft: BEECH AIRCRAFT BARON
(BE58)
More flights by this aircraft type
Origin: KOXR Oxnard
United States
Destination: KONT Ontario Intl
United States
More flights between these airports :: More routes between these airports
Route: VTU044R GINNA V326 VNY V186 PDZ
File this flight plan on PilotEdge
Remarks: TEC route VTUP15
Altitude:
(Current/Filed)
5,000ft
Speed:
(Current/Filed)
180kts
Departed: 15-Mar-20 09:00 AM
Arrived: 15-Mar-20 09:50 AM
Distance/Time
Traveled:
80nm/0:50
Distance/Time
To Go:
Arrived

Flight Plot

Page will automatically refresh every two minutes.


Map Options




Map Legend


Flown Route
Filed Route
Departure Airport
Arrival Airport
Navaid (VOR, NDB)
Fix

Horizontal Profiles

Position Reports

Time Latitude Longitude Heading Altitude Ground
Speed
15-Mar-20 08:51 34.198999 -119.197754 269 43ft 0kts
15-Mar-20 08:52 34.198999 -119.197754 269 43ft 0kts
15-Mar-20 08:53 34.198999 -119.197754 269 43ft 0kts
15-Mar-20 08:54 34.198999 -119.197754 269 43ft 0kts
15-Mar-20 08:55 34.198999 -119.197754 269 43ft 0kts
15-Mar-20 08:56 34.198999 -119.197754 269 43ft 0kts
15-Mar-20 08:57 34.199909 -119.197557 16 43ft 0kts
15-Mar-20 08:58 34.199931 -119.197550 14 43ft 2kts
15-Mar-20 08:59 34.200604 -119.214532 266 533ft 101kts
15-Mar-20 09:00 34.199274 -119.247141 267 2197ft 103kts
15-Mar-20 09:01 34.197900 -119.281923 267 3705ft 104kts
15-Mar-20 09:02 34.196554 -119.316283 267 4920ft 121kts
15-Mar-20 09:03 34.211665 -119.355822 4 5004ft 170kts
15-Mar-20 09:04 34.230283 -119.306047 88 4953ft 180kts
15-Mar-20 09:05 34.229384 -119.245008 90 4908ft 182kts
15-Mar-20 09:06 34.228974 -119.183731 90 4905ft 181kts
15-Mar-20 09:07 34.228634 -119.122060 90 4914ft 186kts
15-Mar-20 09:08 34.228262 -119.058911 90 4905ft 187kts
15-Mar-20 09:09 34.227857 -118.995711 90 4905ft 188kts
15-Mar-20 09:10 34.227416 -118.932740 90 4905ft 187kts
15-Mar-20 09:11 34.226946 -118.869558 90 4906ft 187kts
15-Mar-20 09:12 34.226446 -118.806487 90 4906ft 187kts
15-Mar-20 09:13 34.225906 -118.743018 90 4810ft 190kts
15-Mar-20 09:14 34.225339 -118.679396 90 4789ft 188kts
15-Mar-20 09:15 34.224741 -118.616266 90 4794ft 187kts
15-Mar-20 09:16 34.224109 -118.553021 90 4796ft 187kts
15-Mar-20 09:17 34.221840 -118.490224 106 4758ft 189kts
15-Mar-20 09:18 34.204332 -118.430755 110 4784ft 188kts
15-Mar-20 09:19 34.185940 -118.371765 110 4793ft 188kts
15-Mar-20 09:20 34.167718 -118.313676 110 4795ft 187kts
15-Mar-20 09:21 34.149153 -118.254630 110 4796ft 187kts
15-Mar-20 09:22 34.130603 -118.195749 110 4796ft 187kts
15-Mar-20 09:23 34.111941 -118.136630 110 4796ft 187kts
15-Mar-20 09:24 34.093323 -118.077764 110 4796ft 187kts
15-Mar-20 09:25 34.074669 -118.018899 110 4796ft 187kts
15-Mar-20 09:26 34.056010 -117.960150 110 4796ft 188kts
15-Mar-20 09:27 34.046704 -117.898936 92 4770ft 189kts
15-Mar-20 09:28 34.044850 -117.835940 91 4789ft 188kts
15-Mar-20 09:29 34.043014 -117.773020 91 4795ft 188kts
15-Mar-20 09:30 34.041190 -117.710102 91 4796ft 188kts
15-Mar-20 09:32 34.039376 -117.647095 91 4796ft 188kts
15-Mar-20 09:33 34.037560 -117.584043 92 4796ft 188kts
15-Mar-20 09:34 34.027481 -117.522912 101 4788ft 183kts
15-Mar-20 09:35 34.017016 -117.463203 101 4795ft 182kts
15-Mar-20 09:36 34.006828 -117.405136 101 4672ft 154kts
15-Mar-20 09:37 33.999595 -117.363452 101 4792ft 118kts
15-Mar-20 09:38 33.992418 -117.322348 102 4800ft 128kts
15-Mar-20 09:39 33.988496 -117.283894 58 4785ft 119kts
15-Mar-20 09:40 34.020488 -117.281068 350 4391ft 113kts
15-Mar-20 09:41 34.038134 -117.306853 291 4121ft 96kts
15-Mar-20 09:42 34.047837 -117.336384 291 4173ft 98kts
15-Mar-20 09:43 34.055153 -117.368930 275 4159ft 103kts
15-Mar-20 09:44 34.056129 -117.403673 268 4154ft 103kts
15-Mar-20 09:45 34.055561 -117.438413 271 4156ft 103kts
15-Mar-20 09:46 34.055864 -117.473189 266 4154ft 103kts
15-Mar-20 09:47 34.055034 -117.508400 270 2776ft 109kts
15-Mar-20 09:47 34.054973 -117.537245 270 1584ft 94kts
15-Mar-20 09:49 34.054962 -117.572516 270 1172ft 95kts
15-Mar-20 09:50 34.053998 -117.594612 241 915ft 5kts
15-Mar-20 09:50 34.053825 -117.595635 268 915ft 13kts
15-Mar-20 09:51 34.053471 -117.599132 288 913ft 0kts
15-Mar-20 09:53 34.052626 -117.601636 141 911ft 15kts

Navigation Log

Ident Type
Flight plan parsing failed, navigation log unavailable